KCKV/CKV METAR and TAF weather

Enter ICAO airport designator
Station Type Date Time Source
KCKV METAR 2022/01/29 10:52 UTC NOAA

KCKV 291052Z AUTO 29005KT 9SM CLR M09/M12 A3034 RMK AO2 SLP282 T10891117 TSNO $


Station Type Date Time Source
KCKV Decoded METAR 2022/01/29 10:52 UTC NOAA

CLARKSVILLE OUTLAW FIELD, TN, United States (KCKV) 36-37N 87-25W 165M
Jan 29, 2022 - 05:52 AM EST / 2022.01.29 1052 UTC
Wind: from the WNW (290 degrees) at 6 MPH (5 KT):0
Visibility: 9 mile(s):0
Sky conditions: clear
Temperature: 16.0 F (-8.9 C)
Windchill: 6 F (-14 C):1
Dew Point: 10.9 F (-11.7 C)
Relative Humidity: 80%
Pressure (altimeter): 30.34 in. Hg (1027 hPa)
ob: KCKV 291052Z AUTO 29005KT 9SM CLR M09/M12 A3034 RMK AO2 SLP282 T10891117 TSNO
cycle: 11

Station Type Date Time Source
KCKV TAF 2022/01/29 06:22 UTC NOAA

TAF KCKV 290520Z 2906/3006 33011KT P6SM SCT030
FM291000 34005KT P6SM FEW150
FM291800 23005KT P6SM SCT250

Example: see airport list